Terminal Aerodrome Forecast
Issued by NWS Cleveland, OH

Home | Current Version | Previous Version | Graphics & Text | Print | Product List | Glossary On
Versions: 1 2 3 4 5 6 7 8 9 10 11 12 13 14 15 16 17 18
000
FTUS41 KCLE 141720
TAFMFD
TAF
KMFD 141720Z 1418/1518 18008KT P6SM FEW200
     FM150400 19013KT P6SM SCT200 WS020/21040KT
     FM150900 20018G28KT P6SM BKN025
     FM151400 20022G32KT P6SM VCSH OVC025=

USA.gov is the U.S. government's official web portal to all federal, state and local government web resources and services.